sensor_id;sensor_type;location;lat;lon;timestamp;pressure;altitude;pressure_sealevel;temperature;humidity
59443;BME280;45247;47.466;19.004;2023-11-19T00:00:19;100494.75;;;1.36;100.00
59443;BME280;45247;47.466;19.004;2023-11-19T00:02:48;100493.94;;;1.34;100.00
59443;BME280;45247;47.466;19.004;2023-11-19T00:05:18;100487.88;;;1.32;100.00
59443;BME280;45247;47.466;19.004;2023-11-19T00:07:46;100485.34;;;1.26;100.00
59443;BME280;45247;47.466;19.004;2023-11-19T00:10:16;100474.16;;;1.19;100.00
59443;BME280;45247;47.466;19.004;2023-11-19T00:12:47;100463.91;;;1.09;100.00
59443;BME280;45247;47.466;19.004;2023-11-19T00:15:16;100478.56;;;1.16;100.00
59443;BME280;45247;47.466;19.004;2023-11-19T00:17:47;100476.91;;;1.09;100.00
59443;BME280;45247;47.466;19.004;2023-11-19T00:20:19;100482.13;;;1.06;100.00
59443;BME280;45247;47.466;19.004;2023-11-19T00:22:48;100486.53;;;0.97;100.00
59443;BME280;45247;47.466;19.004;2023-11-19T00:25:19;100488.31;;;0.95;100.00
59443;BME280;45247;47.466;19.004;2023-11-19T00:27:49;100493.53;;;0.92;100.00
59443;BME280;45247;47.466;19.004;2023-11-19T00:30:17;100496.13;;;0.92;100.00
59443;BME280;45247;47.466;19.004;2023-11-19T00:32:46;100504.84;;;0.88;100.00
59443;BME280;45247;47.466;19.004;2023-11-19T00:35:14;100504.84;;;0.88;100.00
59443;BME280;45247;47.466;19.004;2023-11-19T00:37:44;100508.31;;;0.87;100.00
59443;BME280;45247;47.466;19.004;2023-11-19T00:40:14;100505.75;;;0.86;100.00
59443;BME280;45247;47.466;19.004;2023-11-19T00:42:45;100496.25;;;0.83;100.00
59443;BME280;45247;47.466;19.004;2023-11-19T00:45:14;100493.69;;;0.77;100.00
59443;BME280;45247;47.466;19.004;2023-11-19T00:47:43;100494.56;;;0.76;100.00
59443;BME280;45247;47.466;19.004;2023-11-19T00:50:11;100496.38;;;0.68;100.00
59443;BME280;45247;47.466;19.004;2023-11-19T00:52:40;100489.50;;;0.64;100.00
59443;BME280;45247;47.466;19.004;2023-11-19T00:55:09;100486.94;;;0.59;100.00
59443;BME280;45247;47.466;19.004;2023-11-19T00:57:38;100483.56;;;0.53;100.00
59443;BME280;45247;47.466;19.004;2023-11-19T01:00:08;100483.59;;;0.46;100.00
59443;BME280;45247;47.466;19.004;2023-11-19T01:02:46;100476.72;;;0.44;100.00
59443;BME280;45247;47.466;19.004;2023-11-19T01:05:18;100475.84;;;0.43;100.00
59443;BME280;45247;47.466;19.004;2023-11-19T01:07:49;100484.56;;;0.36;100.00
59443;BME280;45247;47.466;19.004;2023-11-19T01:10:20;100486.34;;;0.28;100.00
59443;BME280;45247;47.466;19.004;2023-11-19T01:12:48;100484.72;;;0.18;100.00
59443;BME280;45247;47.466;19.004;2023-11-19T01:15:17;100482.13;;;0.16;100.00
59443;BME280;45247;47.466;19.004;2023-11-19T01:17:46;100477.88;;;0.08;100.00
59443;BME280;45247;47.466;19.004;2023-11-19T01:20:17;100481.34;;;0.07;100.00
59443;BME280;45247;47.466;19.004;2023-11-19T01:22:48;100483.94;;;0.04;100.00
59443;BME280;45247;47.466;19.004;2023-11-19T01:25:16;100477.91;;;0.02;100.00
59443;BME280;45247;47.466;19.004;2023-11-19T01:27:46;100478.81;;;0.01;100.00
59443;BME280;45247;47.466;19.004;2023-11-19T01:30:14;100472.75;;;-0.05;100.00
59443;BME280;45247;47.466;19.004;2023-11-19T01:32:43;100479.63;;;0.03;100.00
59443;BME280;45247;47.466;19.004;2023-11-19T01:35:11;100481.38;;;0.02;100.00
59443;BME280;45247;47.466;19.004;2023-11-19T01:37:39;100477.84;;;0.11;100.00
59443;BME280;45247;47.466;19.004;2023-11-19T01:40:08;100474.38;;;0.12;100.00
59443;BME280;45247;47.466;19.004;2023-11-19T01:42:39;100472.63;;;0.14;100.00
59443;BME280;45247;47.466;19.004;2023-11-19T01:45:10;100466.59;;;0.12;100.00
59443;BME280;45247;47.466;19.004;2023-11-19T01:47:48;100474.34;;;0.18;100.00
59443;BME280;45247;47.466;19.004;2023-11-19T01:50:17;100465.72;;;0.14;100.00
59443;BME280;45247;47.466;19.004;2023-11-19T01:52:46;100467.44;;;0.12;100.00
59443;BME280;45247;47.466;19.004;2023-11-19T01:55:15;100457.09;;;0.11;100.00
59443;BME280;45247;47.466;19.004;2023-11-19T01:57:42;100447.63;;;0.04;100.00
59443;BME280;45247;47.466;19.004;2023-11-19T02:00:13;100438.13;;;-0.01;100.00
59443;BME280;45247;47.466;19.004;2023-11-19T02:02:41;100434.69;;;-0.03;100.00
59443;BME280;45247;47.466;19.004;2023-11-19T02:05:12;100430.38;;;-0.04;100.00
59443;BME280;45247;47.466;19.004;2023-11-19T02:07:40;100422.63;;;-0.07;100.00
59443;BME280;45247;47.466;19.004;2023-11-19T02:10:09;100429.53;;;-0.06;100.00
59443;BME280;45247;47.466;19.004;2023-11-19T02:12:41;100430.38;;;-0.05;100.00
59443;BME280;45247;47.466;19.004;2023-11-19T02:15:13;100434.72;;;-0.06;100.00
59443;BME280;45247;47.466;19.004;2023-11-19T02:17:41;100426.09;;;-0.08;100.00
59443;BME280;45247;47.466;19.004;2023-11-19T02:20:10;100429.53;;;-0.09;100.00
59443;BME280;45247;47.466;19.004;2023-11-19T02:22:41;100434.78;;;-0.12;100.00
59443;BME280;45247;47.466;19.004;2023-11-19T02:25:17;100419.19;;;-0.12;100.00
59443;BME280;45247;47.466;19.004;2023-11-19T02:27:53;100416.63;;;-0.12;100.00
59443;BME280;45247;47.466;19.004;2023-11-19T02:30:24;100414.00;;;-0.10;100.00
59443;BME280;45247;47.466;19.004;2023-11-19T02:32:53;100419.19;;;-0.12;100.00
59443;BME280;45247;47.466;19.004;2023-11-19T02:35:24;100429.56;;;-0.10;100.00
59443;BME280;45247;47.466;19.004;2023-11-19T02:37:53;100430.44;;;-0.11;100.00
59443;BME280;45247;47.466;19.004;2023-11-19T02:40:22;100427.03;;;-0.16;100.00
59443;BME280;45247;47.466;19.004;2023-11-19T02:42:52;100410.63;;;-0.20;100.00
59443;BME280;45247;47.466;19.004;2023-11-19T02:45:22;100414.09;;;-0.22;100.00
59443;BME280;45247;47.466;19.004;2023-11-19T02:47:52;100411.50;;;-0.22;100.00
59443;BME280;45247;47.466;19.004;2023-11-19T02:50:22;100401.97;;;-0.22;100.00
59443;BME280;45247;47.466;19.004;2023-11-19T02:52:54;100394.19;;;-0.20;100.00
59443;BME280;45247;47.466;19.004;2023-11-19T02:55:24;100393.28;;;-0.18;100.00
59443;BME280;45247;47.466;19.004;2023-11-19T02:57:56;100389.88;;;-0.20;100.00
59443;BME280;45247;47.466;19.004;2023-11-19T03:00:26;100393.34;;;-0.21;100.00
59443;BME280;45247;47.466;19.004;2023-11-19T03:03:04;100382.09;;;-0.23;100.00
59443;BME280;45247;47.466;19.004;2023-11-19T03:05:45;100378.75;;;-0.34;100.00
59443;BME280;45247;47.466;19.004;2023-11-19T03:08:15;100377.88;;;-0.36;100.00
59443;BME280;45247;47.466;19.004;2023-11-19T03:10:46;100379.59;;;-0.35;100.00
59443;BME280;45247;47.466;19.004;2023-11-19T03:13:16;100393.44;;;-0.39;100.00
59443;BME280;45247;47.466;19.004;2023-11-19T03:15:45;100379.63;;;-0.37;100.00
59443;BME280;45247;47.466;19.004;2023-11-19T03:18:13;100370.97;;;-0.34;100.00
59443;BME280;45247;47.466;19.004;2023-11-19T03:20:41;100376.97;;;-0.31;100.00
59443;BME280;45247;47.466;19.004;2023-11-19T03:23:10;100368.25;;;-0.23;100.00
59443;BME280;45247;47.466;19.004;2023-11-19T03:25:38;100363.94;;;-0.23;100.00
59443;BME280;45247;47.466;19.004;2023-11-19T03:28:06;100359.66;;;-0.26;100.00
59443;BME280;45247;47.466;19.004;2023-11-19T03:30:35;100361.34;;;-0.23;100.00
59443;BME280;45247;47.466;19.004;2023-11-19T03:33:03;100369.97;;;-0.22;100.00
59443;BME280;45247;47.466;19.004;2023-11-19T03:35:32;100372.59;;;-0.24;100.00
59443;BME280;45247;47.466;19.004;2023-11-19T03:38:00;100371.75;;;-0.24;100.00
59443;BME280;45247;47.466;19.004;2023-11-19T03:40:29;100344.03;;;-0.22;100.00
59443;BME280;45247;47.466;19.004;2023-11-19T03:42:57;100338.00;;;-0.23;100.00
59443;BME280;45247;47.466;19.004;2023-11-19T03:45:26;100338.00;;;-0.23;100.00
59443;BME280;45247;47.466;19.004;2023-11-19T03:47:55;100333.66;;;-0.21;100.00
59443;BME280;45247;47.466;19.004;2023-11-19T03:50:23;100335.38;;;-0.20;100.00
59443;BME280;45247;47.466;19.004;2023-11-19T03:52:51;100321.56;;;-0.23;100.00
59443;BME280;45247;47.466;19.004;2023-11-19T03:55:20;100317.25;;;-0.26;100.00
59443;BME280;45247;47.466;19.004;2023-11-19T03:57:48;100324.28;;;-0.37;100.00
59443;BME280;45247;47.466;19.004;2023-11-19T04:00:17;100320.00;;;-0.44;100.00
59443;BME280;45247;47.466;19.004;2023-11-19T04:02:46;100322.69;;;-0.57;100.00
59443;BME280;45247;47.466;19.004;2023-11-19T04:05:16;100312.41;;;-0.69;100.00
59443;BME280;45247;47.466;19.004;2023-11-19T04:07:45;100311.63;;;-0.77;100.00
59443;BME280;45247;47.466;19.004;2023-11-19T04:10:14;100302.09;;;-0.75;100.00
59443;BME280;45247;47.466;19.004;2023-11-19T04:12:43;100299.50;;;-0.72;100.00
59443;BME280;45247;47.466;19.004;2023-11-19T04:15:11;100296.84;;;-0.69;100.00
59443;BME280;45247;47.466;19.004;2023-11-19T04:17:40;100304.66;;;-0.67;100.00
59443;BME280;45247;47.466;19.004;2023-11-19T04:20:08;100305.53;;;-0.73;100.00
59443;BME280;45247;47.466;19.004;2023-11-19T04:22:40;100300.41;;;-0.82;100.00
59443;BME280;45247;47.466;19.004;2023-11-19T04:25:08;100298.72;;;-0.86;100.00
59443;BME280;45247;47.466;19.004;2023-11-19T04:27:38;100284.91;;;-0.85;100.00
59443;BME280;45247;47.466;19.004;2023-11-19T04:30:06;100285.75;;;-0.86;100.00
59443;BME280;45247;47.466;19.004;2023-11-19T04:32:38;100290.09;;;-0.88;100.00
59443;BME280;45247;47.466;19.004;2023-11-19T04:35:07;100285.81;;;-0.89;100.00
59443;BME280;45247;47.466;19.004;2023-11-19T04:37:37;100279.75;;;-0.94;100.00
59443;BME280;45247;47.466;19.004;2023-11-19T04:40:08;100283.25;;;-0.94;100.00
59443;BME280;45247;47.466;19.004;2023-11-19T04:42:36;100298.81;;;-0.98;100.00
59443;BME280;45247;47.466;19.004;2023-11-19T04:45:07;100311.81;;;-1.12;100.00
59443;BME280;45247;47.466;19.004;2023-11-19T04:47:37;100317.97;;;-1.24;100.00
59443;BME280;45247;47.466;19.004;2023-11-19T04:50:06;100309.34;;;-1.28;100.00
59443;BME280;45247;47.466;19.004;2023-11-19T04:52:37;100318.00;;;-1.38;100.00
59443;BME280;45247;47.466;19.004;2023-11-19T04:55:16;100317.97;;;-1.30;100.00
59443;BME280;45247;47.466;19.004;2023-11-19T04:57:45;100322.25;;;-1.26;100.00
59443;BME280;45247;47.466;19.004;2023-11-19T05:00:13;100317.94;;;-1.22;100.00
59443;BME280;45247;47.466;19.004;2023-11-19T05:02:43;100308.44;;;-1.19;100.00
59443;BME280;45247;47.466;19.004;2023-11-19T05:05:11;100303.16;;;-1.05;100.00
59443;BME280;45247;47.466;19.004;2023-11-19T05:07:40;100302.25;;;-0.93;100.00
59443;BME280;45247;47.466;19.004;2023-11-19T05:10:09;100311.66;;;-0.86;100.00
59443;BME280;45247;47.466;19.004;2023-11-19T05:12:38;100303.06;;;-0.85;100.00
59443;BME280;45247;47.466;19.004;2023-11-19T05:15:09;100307.34;;;-0.84;100.00
59443;BME280;45247;47.466;19.004;2023-11-19T05:17:38;100311.72;;;-0.95;100.00
59443;BME280;45247;47.466;19.004;2023-11-19T05:20:08;100302.28;;;-1.01;100.00
59443;BME280;45247;47.466;19.004;2023-11-19T05:22:40;100314.31;;;-0.92;100.00
59443;BME280;45247;47.466;19.004;2023-11-19T05:25:10;100305.66;;;-0.88;100.00
59443;BME280;45247;47.466;19.004;2023-11-19T05:27:39;100305.59;;;-0.79;100.00
59443;BME280;45247;47.466;19.004;2023-11-19T05:30:07;100308.16;;;-0.78;100.00
59443;BME280;45247;47.466;19.004;2023-11-19T05:32:38;100300.41;;;-0.81;100.00
59443;BME280;45247;47.466;19.004;2023-11-19T05:35:07;100285.72;;;-0.77;100.00
59443;BME280;45247;47.466;19.004;2023-11-19T05:37:36;100284.84;;;-0.79;100.00
59443;BME280;45247;47.466;19.004;2023-11-19T05:40:06;100296.06;;;-0.79;100.00
59443;BME280;45247;47.466;19.004;2023-11-19T05:42:43;100302.88;;;-0.65;100.00
59443;BME280;45247;47.466;19.004;2023-11-19T05:45:12;100295.94;;;-0.62;100.00
59443;BME280;45247;47.466;19.004;2023-11-19T05:47:41;100283.81;;;-0.58;100.00
59443;BME280;45247;47.466;19.004;2023-11-19T05:50:10;100295.06;;;-0.61;100.00
59443;BME280;45247;47.466;19.004;2023-11-19T05:52:38;100302.88;;;-0.65;100.00
59443;BME280;45247;47.466;19.004;2023-11-19T05:55:07;100306.41;;;-0.72;100.00
59443;BME280;45247;47.466;19.004;2023-11-19T05:57:37;100308.13;;;-0.68;100.00
59443;BME280;45247;47.466;19.004;2023-11-19T06:00:11;100299.47;;;-0.70;100.00
59443;BME280;45247;47.466;19.004;2023-11-19T06:02:42;100301.16;;;-0.63;100.00
59443;BME280;45247;47.466;19.004;2023-11-19T06:05:10;100299.41;;;-0.61;100.00
59443;BME280;45247;47.466;19.004;2023-11-19T06:07:39;100296.81;;;-0.61;100.00
59443;BME280;45247;47.466;19.004;2023-11-19T06:10:08;100286.44;;;-0.60;100.00
59443;BME280;45247;47.466;19.004;2023-11-19T06:12:37;100284.66;;;-0.55;100.00
59443;BME280;45247;47.466;19.004;2023-11-19T06:15:08;100293.25;;;-0.49;100.00
59443;BME280;45247;47.466;19.004;2023-11-19T06:17:38;100281.13;;;-0.47;100.00
59443;BME280;45247;47.466;19.004;2023-11-19T06:20:08;100279.28;;;-0.35;100.00
59443;BME280;45247;47.466;19.004;2023-11-19T06:22:39;100277.53;;;-0.31;100.00
59443;BME280;45247;47.466;19.004;2023-11-19T06:25:09;100277.50;;;-0.28;100.00
59443;BME280;45247;47.466;19.004;2023-11-19T06:27:39;100266.19;;;-0.19;100.00
59443;BME280;45247;47.466;19.004;2023-11-19T06:30:08;100270.41;;;-0.11;100.00
59443;BME280;45247;47.466;19.004;2023-11-19T06:32:39;100260.84;;;-0.04;100.00
59443;BME280;45247;47.466;19.004;2023-11-19T06:35:07;100265.94;;;0.04;100.00
59443;BME280;45247;47.466;19.004;2023-11-19T06:37:38;100266.69;;;0.15;100.00
59443;BME280;45247;47.466;19.004;2023-11-19T06:40:07;100257.16;;;0.15;100.00
59443;BME280;45247;47.466;19.004;2023-11-19T06:42:36;100264.88;;;0.23;100.00
59443;BME280;45247;47.466;19.004;2023-11-19T06:45:06;100267.53;;;0.18;100.00
59443;BME280;45247;47.466;19.004;2023-11-19T06:47:35;100264.75;;;0.32;100.00
59443;BME280;45247;47.466;19.004;2023-11-19T06:50:06;100253.69;;;0.16;100.00
59443;BME280;45247;47.466;19.004;2023-11-19T06:52:35;100259.81;;;0.11;100.00
59443;BME280;45247;47.466;19.004;2023-11-19T06:55:04;100250.19;;;0.22;100.00
59443;BME280;45247;47.466;19.004;2023-11-19T06:57:34;100252.56;;;0.37;100.00
59443;BME280;45247;47.466;19.004;2023-11-19T07:00:05;100248.94;;;0.50;100.00
59443;BME280;45247;47.466;19.004;2023-11-19T07:02:33;100250.47;;;0.67;100.00
59443;BME280;45247;47.466;19.004;2023-11-19T07:05:02;100251.88;;;0.89;100.00
59443;BME280;45247;47.466;19.004;2023-11-19T07:07:32;100252.69;;;0.94;100.00
59443;BME280;45247;47.466;19.004;2023-11-19T07:10:00;100245.50;;;1.10;100.00
59443;BME280;45247;47.466;19.004;2023-11-19T07:12:28;100250.50;;;1.22;100.00
59443;BME280;45247;47.466;19.004;2023-11-19T07:14:57;100251.28;;;1.29;100.00
59443;BME280;45247;47.466;19.004;2023-11-19T07:17:25;100243.28;;;1.41;100.00
59443;BME280;45247;47.466;19.004;2023-11-19T07:19:54;100244.09;;;1.43;100.00
59443;BME280;45247;47.466;19.004;2023-11-19T07:22:26;100245.81;;;1.44;100.00
59443;BME280;45247;47.466;19.004;2023-11-19T07:24:57;100258.00;;;1.42;100.00
59443;BME280;45247;47.466;19.004;2023-11-19T07:27:26;100246.63;;;1.48;100.00
59443;BME280;45247;47.466;19.004;2023-11-19T07:29:54;100244.06;;;1.46;100.00
59443;BME280;45247;47.466;19.004;2023-11-19T07:32:23;100254.31;;;1.54;100.00
59443;BME280;45247;47.466;19.004;2023-11-19T07:34:51;100250.72;;;1.63;100.00
59443;BME280;45247;47.466;19.004;2023-11-19T07:37:19;100255.84;;;1.66;100.00
59443;BME280;45247;47.466;19.004;2023-11-19T07:39:48;100254.91;;;1.71;100.00
59443;BME280;45247;47.466;19.004;2023-11-19T07:42:18;100248.03;;;1.67;100.00
59443;BME280;45247;47.466;19.004;2023-11-19T07:44:46;100247.75;;;1.83;100.00
59443;BME280;45247;47.466;19.004;2023-11-19T07:47:14;100257.16;;;1.88;100.00
59443;BME280;45247;47.466;19.004;2023-11-19T07:49:42;100270.25;;;1.85;100.00
59443;BME280;45247;47.466;19.004;2023-11-19T07:52:11;100266.53;;;1.98;100.00
59443;BME280;45247;47.466;19.004;2023-11-19T07:54:42;100264.63;;;2.08;100.00
59443;BME280;45247;47.466;19.004;2023-11-19T07:57:10;100261.16;;;2.08;100.00
59443;BME280;45247;47.466;19.004;2023-11-19T07:59:40;100245.50;;;2.09;100.00
59443;BME280;45247;47.466;19.004;2023-11-19T08:02:08;100243.72;;;2.11;100.00
59443;BME280;45247;47.466;19.004;2023-11-19T08:04:37;100249.66;;;2.18;100.00
59443;BME280;45247;47.466;19.004;2023-11-19T08:07:07;100249.66;;;2.18;100.00
59443;BME280;45247;47.466;19.004;2023-11-19T08:09:35;100235.69;;;2.23;100.00
59443;BME280;45247;47.466;19.004;2023-11-19T08:12:05;100221.63;;;2.32;100.00
59443;BME280;45247;47.466;19.004;2023-11-19T08:14:34;100213.63;;;2.40;100.00
59443;BME280;45247;47.466;19.004;2023-11-19T08:17:04;100198.09;;;2.35;100.00
59443;BME280;45247;47.466;19.004;2023-11-19T08:19:32;100206.59;;;2.45;100.00
59443;BME280;45247;47.466;19.004;2023-11-19T08:22:00;100193.44;;;2.49;100.00
59443;BME280;45247;47.466;19.004;2023-11-19T08:24:28;100188.03;;;2.59;100.00
59443;BME280;45247;47.466;19.004;2023-11-19T08:26:56;100161.13;;;2.58;100.00
59443;BME280;45247;47.466;19.004;2023-11-19T08:29:27;100143.56;;;2.65;100.00
59443;BME280;45247;47.466;19.004;2023-11-19T08:31:56;100159.84;;;2.76;100.00
59443;BME280;45247;47.466;19.004;2023-11-19T08:34:26;100195.63;;;2.68;100.00
59443;BME280;45247;47.466;19.004;2023-11-19T08:36:54;100214.63;;;2.73;100.00
59443;BME280;45247;47.466;19.004;2023-11-19T08:39:22;100198.50;;;2.57;100.00
59443;BME280;45247;47.466;19.004;2023-11-19T08:41:50;100177.47;;;2.65;100.00
59443;BME280;45247;47.466;19.004;2023-11-19T08:44:19;100173.84;;;2.72;100.00
59443;BME280;45247;47.466;19.004;2023-11-19T08:46:47;100184.81;;;2.85;100.00
59443;BME280;45247;47.466;19.004;2023-11-19T08:49:16;100164.53;;;2.97;100.00
59443;BME280;45247;47.466;19.004;2023-11-19T08:51:47;100155.50;;;3.11;100.00
59443;BME280;45247;47.466;19.004;2023-11-19T08:54:15;100184.81;;;3.20;100.00
59443;BME280;45247;47.466;19.004;2023-11-19T08:56:43;100187.28;;;3.26;100.00
59443;BME280;45247;47.466;19.004;2023-11-19T08:59:11;100161.94;;;3.32;100.00
59443;BME280;45247;47.466;19.004;2023-11-19T09:01:43;100172.25;;;3.36;100.00
59443;BME280;45247;47.466;19.004;2023-11-19T09:04:11;100181.66;;;3.43;100.00
59443;BME280;45247;47.466;19.004;2023-11-19T09:06:39;100185.84;;;3.49;100.00
59443;BME280;45247;47.466;19.004;2023-11-19T09:09:11;100183.31;;;3.46;100.00
59443;BME280;45247;47.466;19.004;2023-11-19T09:11:39;100181.66;;;3.43;100.00
59443;BME280;45247;47.466;19.004;2023-11-19T09:14:07;100181.56;;;3.46;100.00
59443;BME280;45247;47.466;19.004;2023-11-19T09:16:36;100192.75;;;3.51;100.00
59443;BME280;45247;47.466;19.004;2023-11-19T09:19:05;100192.09;;;3.43;100.00
59443;BME280;45247;47.466;19.004;2023-11-19T09:21:33;100200.84;;;3.41;100.00
59443;BME280;45247;47.466;19.004;2023-11-19T09:24:04;100188.09;;;3.29;100.00
59443;BME280;45247;47.466;19.004;2023-11-19T09:26:35;100190.66;;;3.32;100.00
59443;BME280;45247;47.466;19.004;2023-11-19T09:29:06;100189.72;;;3.34;100.00
59443;BME280;45247;47.466;19.004;2023-11-19T09:31:34;100196.53;;;3.38;100.00
59443;BME280;45247;47.466;19.004;2023-11-19T09:34:02;100202.78;;;3.33;100.00
59443;BME280;45247;47.466;19.004;2023-11-19T09:36:31;100195.69;;;3.38;100.00
59443;BME280;45247;47.466;19.004;2023-11-19T09:38:59;100180.75;;;3.44;100.00
59443;BME280;45247;47.466;19.004;2023-11-19T09:41:29;100173.66;;;3.49;100.00
59443;BME280;45247;47.466;19.004;2023-11-19T09:44:00;100164.91;;;3.50;100.00
59443;BME280;45247;47.466;19.004;2023-11-19T09:46:28;100161.44;;;3.51;100.00
59443;BME280;45247;47.466;19.004;2023-11-19T09:48:57;100164.72;;;3.58;100.00
59443;BME280;45247;47.466;19.004;2023-11-19T09:51:27;100154.81;;;3.71;100.00
59443;BME280;45247;47.466;19.004;2023-11-19T09:53:56;100162.50;;;3.75;100.00
59443;BME280;45247;47.466;19.004;2023-11-19T09:56:24;100154.47;;;3.83;100.00
59443;BME280;45247;47.466;19.004;2023-11-19T09:58:53;100145.72;;;3.84;100.00
59443;BME280;45247;47.466;19.004;2023-11-19T10:01:23;100146.44;;;3.89;100.00
59443;BME280;45247;47.466;19.004;2023-11-19T10:03:55;100136.91;;;3.88;100.00
59443;BME280;45247;47.466;19.004;2023-11-19T10:06:25;100140.09;;;3.99;100.00
59443;BME280;45247;47.466;19.004;2023-11-19T10:08:54;100123.44;;;4.04;100.00
59443;BME280;45247;47.466;19.004;2023-11-19T10:11:23;100112.00;;;4.06;100.00
59443;BME280;45247;47.466;19.004;2023-11-19T10:13:53;100119.81;;;4.08;100.00
59443;BME280;45247;47.466;19.004;2023-11-19T10:16:28;100111.78;;;4.14;100.00
59443;BME280;45247;47.466;19.004;2023-11-19T10:18:56;100110.72;;;4.21;100.00
59443;BME280;45247;47.466;19.004;2023-11-19T10:21:25;100108.72;;;4.29;100.00
59443;BME280;45247;47.466;19.004;2023-11-19T10:23:55;100103.25;;;4.37;100.00
59443;BME280;45247;47.466;19.004;2023-11-19T10:26:27;100092.56;;;4.44;100.00
59443;BME280;45247;47.466;19.004;2023-11-19T10:28:56;100086.09;;;4.56;100.00
59443;BME280;45247;47.466;19.004;2023-11-19T10:31:25;100094.72;;;4.58;100.00
59443;BME280;45247;47.466;19.004;2023-11-19T10:33:53;100088.88;;;4.51;100.00
59443;BME280;45247;47.466;19.004;2023-11-19T10:36:22;100095.19;;;4.44;100.00
59443;BME280;45247;47.466;19.004;2023-11-19T10:38:53;100094.88;;;4.53;100.00
59443;BME280;45247;47.466;19.004;2023-11-19T10:41:28;100097.66;;;4.49;100.00
59443;BME280;45247;47.466;19.004;2023-11-19T10:43:56;100097.31;;;4.60;100.00
59443;BME280;45247;47.466;19.004;2023-11-19T10:46:37;100092.19;;;4.57;100.00
59443;BME280;45247;47.466;19.004;2023-11-19T10:49:07;100087.94;;;4.54;100.00
59443;BME280;45247;47.466;19.004;2023-11-19T10:51:35;100089.94;;;4.44;100.00
59443;BME280;45247;47.466;19.004;2023-11-19T10:54:04;100090.78;;;4.46;100.00
59443;BME280;45247;47.466;19.004;2023-11-19T10:56:34;100091.63;;;4.47;100.00
59443;BME280;45247;47.466;19.004;2023-11-19T10:59:02;100086.16;;;4.55;100.00
59443;BME280;45247;47.466;19.004;2023-11-19T11:01:53;100076.09;;;4.42;100.00
59443;BME280;45247;47.466;19.004;2023-11-19T11:04:23;100064.63;;;4.46;100.00
59443;BME280;45247;47.466;19.004;2023-11-19T11:06:54;100067.00;;;4.54;100.00
59443;BME280;45247;47.466;19.004;2023-11-19T11:09:22;100055.50;;;4.60;100.00
59443;BME280;45247;47.466;19.004;2023-11-19T11:11:51;100046.19;;;4.51;100.00
59443;BME280;45247;47.466;19.004;2023-11-19T11:14:21;100039.25;;;4.50;100.00
59443;BME280;45247;47.466;19.004;2023-11-19T11:16:53;100024.88;;;4.63;100.00
59443;BME280;45247;47.466;19.004;2023-11-19T11:19:21;100022.50;;;4.56;100.00
59443;BME280;45247;47.466;19.004;2023-11-19T11:21:52;100022.97;;;4.68;100.00
59443;BME280;45247;47.466;19.004;2023-11-19T11:24:34;100025.50;;;4.70;100.00
59443;BME280;45247;47.466;19.004;2023-11-19T11:27:34;100028.13;;;4.70;100.00
59443;BME280;45247;47.466;19.004;2023-11-19T11:30:13;100018.59;;;4.69;100.00
59443;BME280;45247;47.466;19.004;2023-11-19T11:32:54;100027.75;;;4.56;100.00
59443;BME280;45247;47.466;19.004;2023-11-19T11:35:32;100034.59;;;4.60;100.00
59443;BME280;45247;47.466;19.004;2023-11-19T11:38:06;100038.19;;;4.56;100.00
59443;BME280;45247;47.466;19.004;2023-11-19T11:40:35;100029.25;;;4.63;100.00
59443;BME280;45247;47.466;19.004;2023-11-19T11:43:03;100030.06;;;4.65;100.00
59443;BME280;45247;47.466;19.004;2023-11-19T11:45:36;100023.03;;;4.67;100.00
59443;BME280;45247;47.466;19.004;2023-11-19T11:48:21;100004.59;;;4.70;100.00
59443;BME280;45247;47.466;19.004;2023-11-19T11:50:55;99997.25;;;4.81;100.00
59443;BME280;45247;47.466;19.004;2023-11-19T11:53:25;100000.56;;;4.86;100.00
59443;BME280;45247;47.466;19.004;2023-11-19T11:55:55;99994.16;;;4.95;100.00
59443;BME280;45247;47.466;19.004;2023-11-19T11:58:28;99991.47;;;4.96;100.00
59443;BME280;45247;47.466;19.004;2023-11-19T12:00:59;99990.19;;;5.08;100.00
59443;BME280;45247;47.466;19.004;2023-11-19T12:03:31;99983.47;;;5.01;100.00
59443;BME280;45247;47.466;19.004;2023-11-19T12:06:00;99978.78;;;5.11;100.00
59443;BME280;45247;47.466;19.004;2023-11-19T12:08:29;99976.91;;;5.14;100.00
59443;BME280;45247;47.466;19.004;2023-11-19T12:10:58;99970.59;;;5.20;100.00
59443;BME280;45247;47.466;19.004;2023-11-19T12:13:46;99958.69;;;5.35;100.00
59443;BME280;45247;47.466;19.004;2023-11-19T12:16:15;99943.31;;;5.27;100.00
59443;BME280;45247;47.466;19.004;2023-11-19T12:18:45;99947.16;;;5.40;100.00
59443;BME280;45247;47.466;19.004;2023-11-19T12:21:27;99948.78;;;5.43;100.00
59443;BME280;45247;47.466;19.004;2023-11-19T12:23:58;99951.03;;;5.53;100.00
59443;BME280;45247;47.466;19.004;2023-11-19T12:26:35;99935.78;;;5.41;100.00
59443;BME280;45247;47.466;19.004;2023-11-19T12:29:04;99938.72;;;5.56;100.00
59443;BME280;45247;47.466;19.004;2023-11-19T12:31:35;99932.06;;;5.47;100.00
59443;BME280;45247;47.466;19.004;2023-11-19T12:34:09;99920.34;;;5.57;100.00
59443;BME280;45247;47.466;19.004;2023-11-19T12:36:40;99912.31;;;5.62;100.00
59443;BME280;45247;47.466;19.004;2023-11-19T12:39:10;99909.75;;;5.60;100.00
59443;BME280;45247;47.466;19.004;2023-11-19T12:41:53;99903.09;;;5.51;100.00
59443;BME280;45247;47.466;19.004;2023-11-19T12:44:22;99910.19;;;5.48;100.00
59443;BME280;45247;47.466;19.004;2023-11-19T12:47:01;99909.34;;;5.47;100.00
59443;BME280;45247;47.466;19.004;2023-11-19T12:49:31;99907.75;;;5.43;100.00
59443;BME280;45247;47.466;19.004;2023-11-19T12:52:00;99888.88;;;5.35;100.00